sensor_id;sensor_type;location;lat;lon;timestamp;P1;durP1;ratioP1;P2;durP2;ratioP2
59169;SDS011;52474;52.236;5.114;2022-12-29T00:01:36;4.13;;;3.70;;
59169;SDS011;52474;52.236;5.114;2022-12-29T00:04:03;5.53;;;3.80;;
59169;SDS011;52474;52.236;5.114;2022-12-29T00:06:30;3.90;;;3.47;;
59169;SDS011;52474;52.236;5.114;2022-12-29T00:08:56;5.75;;;3.83;;
59169;SDS011;52474;52.236;5.114;2022-12-29T00:11:23;5.45;;;3.85;;
59169;SDS011;52474;52.236;5.114;2022-12-29T00:13:50;4.50;;;3.33;;
59169;SDS011;52474;52.236;5.114;2022-12-29T00:16:35;4.97;;;3.25;;
59169;SDS011;52474;52.236;5.114;2022-12-29T00:19:02;4.57;;;3.47;;
59169;SDS011;52474;52.236;5.114;2022-12-29T00:21:29;5.18;;;3.10;;
59169;SDS011;52474;52.236;5.114;2022-12-29T00:24:15;5.60;;;3.40;;
59169;SDS011;52474;52.236;5.114;2022-12-29T00:26:53;4.80;;;3.40;;
59169;SDS011;52474;52.236;5.114;2022-12-29T00:29:41;4.88;;;3.15;;
59169;SDS011;52474;52.236;5.114;2022-12-29T00:32:25;4.47;;;3.20;;
59169;SDS011;52474;52.236;5.114;2022-12-29T00:35:11;3.80;;;2.90;;
59169;SDS011;52474;52.236;5.114;2022-12-29T00:37:44;3.45;;;2.65;;
59169;SDS011;52474;52.236;5.114;2022-12-29T00:40:32;4.20;;;2.55;;
59169;SDS011;52474;52.236;5.114;2022-12-29T00:43:16;4.10;;;2.80;;
59169;SDS011;52474;52.236;5.114;2022-12-29T00:46:00;2.67;;;2.30;;
59169;SDS011;52474;52.236;5.114;2022-12-29T00:48:29;3.60;;;2.70;;
59169;SDS011;52474;52.236;5.114;2022-12-29T00:51:33;3.42;;;2.60;;
59169;SDS011;52474;52.236;5.114;2022-12-29T00:53:59;3.58;;;2.40;;
59169;SDS011;52474;52.236;5.114;2022-12-29T00:56:24;3.03;;;2.58;;
59169;SDS011;52474;52.236;5.114;2022-12-29T00:58:50;3.30;;;2.22;;
59169;SDS011;52474;52.236;5.114;2022-12-29T01:01:16;4.35;;;2.45;;
59169;SDS011;52474;52.236;5.114;2022-12-29T01:03:42;3.70;;;2.13;;
59169;SDS011;52474;52.236;5.114;2022-12-29T01:06:08;3.63;;;2.40;;
59169;SDS011;52474;52.236;5.114;2022-12-29T01:08:36;4.70;;;2.40;;
59169;SDS011;52474;52.236;5.114;2022-12-29T01:13:31;2.97;;;2.25;;
59169;SDS011;52474;52.236;5.114;2022-12-29T01:15:58;4.47;;;2.60;;
59169;SDS011;52474;52.236;5.114;2022-12-29T01:18:24;3.85;;;2.70;;
59169;SDS011;52474;52.236;5.114;2022-12-29T01:20:50;6.35;;;2.95;;
59169;SDS011;52474;52.236;5.114;2022-12-29T01:23:16;7.15;;;2.90;;
59169;SDS011;52474;52.236;5.114;2022-12-29T01:25:44;3.95;;;2.92;;
59169;SDS011;52474;52.236;5.114;2022-12-29T01:28:09;5.32;;;2.65;;
59169;SDS011;52474;52.236;5.114;2022-12-29T01:30:35;3.97;;;2.35;;
59169;SDS011;52474;52.236;5.114;2022-12-29T01:33:01;4.40;;;2.70;;
59169;SDS011;52474;52.236;5.114;2022-12-29T01:35:26;4.55;;;2.50;;
59169;SDS011;52474;52.236;5.114;2022-12-29T01:37:53;3.28;;;2.22;;
59169;SDS011;52474;52.236;5.114;2022-12-29T01:40:19;4.00;;;2.80;;
59169;SDS011;52474;52.236;5.114;2022-12-29T01:42:45;5.55;;;2.85;;
59169;SDS011;52474;52.236;5.114;2022-12-29T01:45:11;4.72;;;2.65;;
59169;SDS011;52474;52.236;5.114;2022-12-29T01:47:43;3.80;;;3.10;;
59169;SDS011;52474;52.236;5.114;2022-12-29T01:53:00;4.47;;;2.80;;
59169;SDS011;52474;52.236;5.114;2022-12-29T01:55:34;2.78;;;2.28;;
59169;SDS011;52474;52.236;5.114;2022-12-29T01:58:07;2.95;;;2.50;;
59169;SDS011;52474;52.236;5.114;2022-12-29T02:00:34;2.92;;;2.30;;
59169;SDS011;52474;52.236;5.114;2022-12-29T02:03:02;2.85;;;2.20;;
59169;SDS011;52474;52.236;5.114;2022-12-29T02:05:36;3.30;;;1.73;;
59169;SDS011;52474;52.236;5.114;2022-12-29T02:08:11;3.15;;;2.17;;
59169;SDS011;52474;52.236;5.114;2022-12-29T02:10:38;3.22;;;2.17;;
59169;SDS011;52474;52.236;5.114;2022-12-29T02:13:05;2.97;;;2.13;;
59169;SDS011;52474;52.236;5.114;2022-12-29T02:15:39;4.40;;;2.15;;
59169;SDS011;52474;52.236;5.114;2022-12-29T02:26:44;2.25;;;1.80;;
59169;SDS011;52474;52.236;5.114;2022-12-29T02:40:36;4.40;;;1.40;;
59169;SDS011;52474;52.236;5.114;2022-12-29T02:45:58;4.25;;;1.60;;
59169;SDS011;52474;52.236;5.114;2022-12-29T02:48:37;2.63;;;1.05;;
59169;SDS011;52474;52.236;5.114;2022-12-29T02:51:14;2.63;;;1.60;;
59169;SDS011;52474;52.236;5.114;2022-12-29T02:53:44;9.10;;;2.03;;
59169;SDS011;52474;52.236;5.114;2022-12-29T02:56:29;3.10;;;1.30;;
59169;SDS011;52474;52.236;5.114;2022-12-29T02:58:55;3.60;;;1.30;;
59169;SDS011;52474;52.236;5.114;2022-12-29T03:06:33;2.78;;;1.20;;
59169;SDS011;52474;52.236;5.114;2022-12-29T03:11:42;6.10;;;1.05;;
59169;SDS011;52474;52.236;5.114;2022-12-29T03:14:57;5.65;;;1.08;;
59169;SDS011;52474;52.236;5.114;2022-12-29T03:17:41;4.10;;;1.27;;
59169;SDS011;52474;52.236;5.114;2022-12-29T03:20:15;6.72;;;1.20;;
59169;SDS011;52474;52.236;5.114;2022-12-29T03:22:47;8.13;;;1.20;;
59169;SDS011;52474;52.236;5.114;2022-12-29T03:25:26;4.53;;;1.15;;
59169;SDS011;52474;52.236;5.114;2022-12-29T03:27:58;7.30;;;1.63;;
59169;SDS011;52474;52.236;5.114;2022-12-29T03:30:29;5.32;;;1.50;;
59169;SDS011;52474;52.236;5.114;2022-12-29T03:32:59;7.00;;;1.52;;
59169;SDS011;52474;52.236;5.114;2022-12-29T03:35:31;8.30;;;1.40;;
59169;SDS011;52474;52.236;5.114;2022-12-29T03:38:05;7.85;;;1.30;;
59169;SDS011;52474;52.236;5.114;2022-12-29T03:40:39;8.23;;;1.20;;
59169;SDS011;52474;52.236;5.114;2022-12-29T03:43:09;7.53;;;1.95;;
59169;SDS011;52474;52.236;5.114;2022-12-29T03:45:36;2.90;;;0.90;;
59169;SDS011;52474;52.236;5.114;2022-12-29T03:48:01;8.05;;;1.40;;
59169;SDS011;52474;52.236;5.114;2022-12-29T03:50:30;4.55;;;1.20;;
59169;SDS011;52474;52.236;5.114;2022-12-29T03:52:56;7.57;;;1.10;;
59169;SDS011;52474;52.236;5.114;2022-12-29T03:55:22;4.75;;;1.25;;
59169;SDS011;52474;52.236;5.114;2022-12-29T03:57:47;9.68;;;1.33;;
59169;SDS011;52474;52.236;5.114;2022-12-29T04:00:20;6.15;;;1.00;;
59169;SDS011;52474;52.236;5.114;2022-12-29T04:02:48;8.05;;;1.40;;
59169;SDS011;52474;52.236;5.114;2022-12-29T04:05:19;5.75;;;1.17;;
59169;SDS011;52474;52.236;5.114;2022-12-29T04:07:45;4.13;;;0.85;;
59169;SDS011;52474;52.236;5.114;2022-12-29T04:10:11;6.35;;;1.20;;
59169;SDS011;52474;52.236;5.114;2022-12-29T04:12:37;4.45;;;1.05;;
59169;SDS011;52474;52.236;5.114;2022-12-29T04:15:03;4.28;;;1.75;;
59169;SDS011;52474;52.236;5.114;2022-12-29T04:17:30;4.32;;;1.17;;
59169;SDS011;52474;52.236;5.114;2022-12-29T04:19:55;5.53;;;1.02;;
59169;SDS011;52474;52.236;5.114;2022-12-29T04:22:41;5.45;;;0.90;;
59169;SDS011;52474;52.236;5.114;2022-12-29T04:25:07;5.70;;;1.10;;
59169;SDS011;52474;52.236;5.114;2022-12-29T04:27:33;6.75;;;1.17;;
59169;SDS011;52474;52.236;5.114;2022-12-29T04:30:17;3.47;;;1.13;;
59169;SDS011;52474;52.236;5.114;2022-12-29T04:33:19;4.68;;;1.10;;
59169;SDS011;52474;52.236;5.114;2022-12-29T04:35:45;6.47;;;1.33;;
59169;SDS011;52474;52.236;5.114;2022-12-29T04:38:12;8.27;;;1.25;;
59169;SDS011;52474;52.236;5.114;2022-12-29T04:40:40;3.00;;;1.00;;
59169;SDS011;52474;52.236;5.114;2022-12-29T04:43:08;9.30;;;1.42;;
59169;SDS011;52474;52.236;5.114;2022-12-29T04:45:47;5.68;;;1.20;;
59169;SDS011;52474;52.236;5.114;2022-12-29T04:48:32;8.73;;;1.30;;
59169;SDS011;52474;52.236;5.114;2022-12-29T04:51:08;6.10;;;1.17;;
59169;SDS011;52474;52.236;5.114;2022-12-29T04:53:37;7.47;;;1.58;;
59169;SDS011;52474;52.236;5.114;2022-12-29T04:56:03;7.15;;;2.25;;
59169;SDS011;52474;52.236;5.114;2022-12-29T04:58:29;5.45;;;1.33;;
59169;SDS011;52474;52.236;5.114;2022-12-29T05:00:55;8.75;;;1.30;;
59169;SDS011;52474;52.236;5.114;2022-12-29T05:03:23;10.68;;;1.40;;
59169;SDS011;52474;52.236;5.114;2022-12-29T05:05:52;7.13;;;1.52;;
59169;SDS011;52474;52.236;5.114;2022-12-29T05:08:19;6.82;;;1.27;;
59169;SDS011;52474;52.236;5.114;2022-12-29T05:10:45;6.35;;;1.08;;
59169;SDS011;52474;52.236;5.114;2022-12-29T05:13:11;8.02;;;1.30;;
59169;SDS011;52474;52.236;5.114;2022-12-29T05:15:38;4.60;;;1.15;;
59169;SDS011;52474;52.236;5.114;2022-12-29T05:18:04;7.53;;;1.52;;
59169;SDS011;52474;52.236;5.114;2022-12-29T05:20:29;7.38;;;1.30;;
59169;SDS011;52474;52.236;5.114;2022-12-29T05:22:56;8.63;;;1.33;;
59169;SDS011;52474;52.236;5.114;2022-12-29T05:25:22;8.75;;;2.50;;
59169;SDS011;52474;52.236;5.114;2022-12-29T05:28:14;9.75;;;1.40;;
59169;SDS011;52474;52.236;5.114;2022-12-29T05:30:46;7.35;;;1.65;;
59169;SDS011;52474;52.236;5.114;2022-12-29T05:33:14;11.38;;;1.73;;
59169;SDS011;52474;52.236;5.114;2022-12-29T05:35:39;10.00;;;1.50;;
59169;SDS011;52474;52.236;5.114;2022-12-29T05:38:05;12.88;;;1.45;;
59169;SDS011;52474;52.236;5.114;2022-12-29T05:40:31;5.85;;;1.92;;
59169;SDS011;52474;52.236;5.114;2022-12-29T05:45:52;20.75;;;2.45;;
59169;SDS011;52474;52.236;5.114;2022-12-29T05:48:44;7.85;;;1.55;;
59169;SDS011;52474;52.236;5.114;2022-12-29T05:51:18;9.23;;;1.70;;
59169;SDS011;52474;52.236;5.114;2022-12-29T05:53:47;6.18;;;1.30;;
59169;SDS011;52474;52.236;5.114;2022-12-29T05:56:12;9.05;;;1.38;;
59169;SDS011;52474;52.236;5.114;2022-12-29T05:58:39;10.85;;;1.42;;
59169;SDS011;52474;52.236;5.114;2022-12-29T06:01:05;12.98;;;1.48;;
59169;SDS011;52474;52.236;5.114;2022-12-29T06:03:31;12.00;;;1.95;;
59169;SDS011;52474;52.236;5.114;2022-12-29T06:05:57;8.30;;;2.03;;
59169;SDS011;52474;52.236;5.114;2022-12-29T06:08:24;8.18;;;1.60;;
59169;SDS011;52474;52.236;5.114;2022-12-29T06:10:50;8.38;;;1.45;;
59169;SDS011;52474;52.236;5.114;2022-12-29T06:13:16;10.32;;;1.45;;
59169;SDS011;52474;52.236;5.114;2022-12-29T06:15:44;9.57;;;2.40;;
59169;SDS011;52474;52.236;5.114;2022-12-29T06:18:10;11.80;;;1.83;;
59169;SDS011;52474;52.236;5.114;2022-12-29T06:20:36;11.52;;;2.15;;
59169;SDS011;52474;52.236;5.114;2022-12-29T06:23:04;10.98;;;1.38;;
59169;SDS011;52474;52.236;5.114;2022-12-29T06:25:30;9.63;;;1.52;;
59169;SDS011;52474;52.236;5.114;2022-12-29T06:27:59;12.55;;;2.33;;
59169;SDS011;52474;52.236;5.114;2022-12-29T06:30:25;9.77;;;1.60;;
59169;SDS011;52474;52.236;5.114;2022-12-29T06:32:51;10.35;;;1.40;;
59169;SDS011;52474;52.236;5.114;2022-12-29T06:35:18;8.18;;;1.80;;
59169;SDS011;52474;52.236;5.114;2022-12-29T06:37:48;9.52;;;1.98;;
59169;SDS011;52474;52.236;5.114;2022-12-29T06:40:14;8.45;;;1.42;;
59169;SDS011;52474;52.236;5.114;2022-12-29T06:43:12;10.40;;;2.40;;
59169;SDS011;52474;52.236;5.114;2022-12-29T06:45:56;9.98;;;1.67;;
59169;SDS011;52474;52.236;5.114;2022-12-29T06:48:22;13.55;;;1.75;;
59169;SDS011;52474;52.236;5.114;2022-12-29T06:50:47;11.55;;;1.98;;
59169;SDS011;52474;52.236;5.114;2022-12-29T06:53:13;7.65;;;1.60;;
59169;SDS011;52474;52.236;5.114;2022-12-29T06:55:38;11.23;;;1.63;;
59169;SDS011;52474;52.236;5.114;2022-12-29T06:58:04;10.20;;;1.33;;
59169;SDS011;52474;52.236;5.114;2022-12-29T07:00:30;8.63;;;1.90;;
59169;SDS011;52474;52.236;5.114;2022-12-29T07:02:55;10.68;;;1.67;;
59169;SDS011;52474;52.236;5.114;2022-12-29T07:05:23;10.60;;;1.92;;
59169;SDS011;52474;52.236;5.114;2022-12-29T07:07:50;14.50;;;1.70;;
59169;SDS011;52474;52.236;5.114;2022-12-29T07:10:16;12.00;;;2.35;;
59169;SDS011;52474;52.236;5.114;2022-12-29T07:12:41;10.73;;;2.03;;
59169;SDS011;52474;52.236;5.114;2022-12-29T07:15:07;16.45;;;1.90;;
59169;SDS011;52474;52.236;5.114;2022-12-29T07:17:33;19.10;;;2.10;;
59169;SDS011;52474;52.236;5.114;2022-12-29T07:19:58;15.43;;;2.53;;
59169;SDS011;52474;52.236;5.114;2022-12-29T07:22:24;16.13;;;2.15;;
59169;SDS011;52474;52.236;5.114;2022-12-29T07:24:50;8.50;;;1.77;;
59169;SDS011;52474;52.236;5.114;2022-12-29T07:27:15;13.70;;;1.80;;
59169;SDS011;52474;52.236;5.114;2022-12-29T07:29:41;11.38;;;2.35;;
59169;SDS011;52474;52.236;5.114;2022-12-29T07:32:06;9.98;;;1.60;;
59169;SDS011;52474;52.236;5.114;2022-12-29T07:34:32;10.82;;;1.60;;
59169;SDS011;52474;52.236;5.114;2022-12-29T07:36:58;10.25;;;1.33;;
59169;SDS011;52474;52.236;5.114;2022-12-29T07:39:23;8.02;;;1.60;;
59169;SDS011;52474;52.236;5.114;2022-12-29T07:41:49;8.45;;;1.30;;
59169;SDS011;52474;52.236;5.114;2022-12-29T07:44:17;11.18;;;1.80;;
59169;SDS011;52474;52.236;5.114;2022-12-29T07:47:11;6.55;;;1.20;;
59169;SDS011;52474;52.236;5.114;2022-12-29T07:49:36;6.53;;;1.35;;
59169;SDS011;52474;52.236;5.114;2022-12-29T07:52:02;5.70;;;1.40;;
59169;SDS011;52474;52.236;5.114;2022-12-29T07:54:28;6.75;;;1.40;;
59169;SDS011;52474;52.236;5.114;2022-12-29T07:56:53;10.25;;;1.50;;
59169;SDS011;52474;52.236;5.114;2022-12-29T07:59:19;8.43;;;1.30;;
59169;SDS011;52474;52.236;5.114;2022-12-29T08:01:45;8.77;;;1.48;;
59169;SDS011;52474;52.236;5.114;2022-12-29T08:04:11;7.43;;;1.90;;
59169;SDS011;52474;52.236;5.114;2022-12-29T08:06:36;9.52;;;1.50;;
59169;SDS011;52474;52.236;5.114;2022-12-29T08:09:03;6.88;;;1.42;;
59169;SDS011;52474;52.236;5.114;2022-12-29T08:11:29;12.65;;;2.08;;
59169;SDS011;52474;52.236;5.114;2022-12-29T08:13:54;12.15;;;1.83;;
59169;SDS011;52474;52.236;5.114;2022-12-29T08:16:20;12.18;;;2.40;;
59169;SDS011;52474;52.236;5.114;2022-12-29T08:18:45;10.52;;;1.60;;
59169;SDS011;52474;52.236;5.114;2022-12-29T08:21:11;8.70;;;1.85;;
59169;SDS011;52474;52.236;5.114;2022-12-29T08:23:37;13.32;;;2.17;;
59169;SDS011;52474;52.236;5.114;2022-12-29T08:26:03;14.57;;;1.73;;
59169;SDS011;52474;52.236;5.114;2022-12-29T08:28:31;9.27;;;1.80;;
59169;SDS011;52474;52.236;5.114;2022-12-29T08:30:57;13.25;;;1.88;;
59169;SDS011;52474;52.236;5.114;2022-12-29T08:33:24;10.25;;;1.80;;
59169;SDS011;52474;52.236;5.114;2022-12-29T08:35:50;11.60;;;2.40;;
59169;SDS011;52474;52.236;5.114;2022-12-29T08:38:16;9.38;;;2.17;;
59169;SDS011;52474;52.236;5.114;2022-12-29T08:40:42;11.00;;;1.88;;
59169;SDS011;52474;52.236;5.114;2022-12-29T08:43:08;13.93;;;1.85;;
59169;SDS011;52474;52.236;5.114;2022-12-29T08:45:34;7.82;;;1.65;;
59169;SDS011;52474;52.236;5.114;2022-12-29T08:48:00;17.92;;;2.17;;
59169;SDS011;52474;52.236;5.114;2022-12-29T08:50:26;12.52;;;2.47;;
59169;SDS011;52474;52.236;5.114;2022-12-29T08:52:51;4.57;;;1.30;;
59169;SDS011;52474;52.236;5.114;2022-12-29T08:55:17;12.15;;;1.63;;
59169;SDS011;52474;52.236;5.114;2022-12-29T08:57:43;13.23;;;2.00;;
59169;SDS011;52474;52.236;5.114;2022-12-29T09:00:14;10.68;;;1.95;;
59169;SDS011;52474;52.236;5.114;2022-12-29T09:02:40;12.63;;;1.92;;
59169;SDS011;52474;52.236;5.114;2022-12-29T09:05:06;12.45;;;2.85;;
59169;SDS011;52474;52.236;5.114;2022-12-29T09:07:32;16.02;;;2.50;;
59169;SDS011;52474;52.236;5.114;2022-12-29T09:09:58;17.45;;;1.77;;
59169;SDS011;52474;52.236;5.114;2022-12-29T09:12:23;13.55;;;2.20;;
59169;SDS011;52474;52.236;5.114;2022-12-29T09:14:49;11.60;;;1.85;;
59169;SDS011;52474;52.236;5.114;2022-12-29T09:17:15;5.78;;;1.52;;
59169;SDS011;52474;52.236;5.114;2022-12-29T09:19:59;11.80;;;2.03;;
59169;SDS011;52474;52.236;5.114;2022-12-29T09:22:24;14.60;;;2.33;;
59169;SDS011;52474;52.236;5.114;2022-12-29T09:24:50;9.88;;;2.08;;
59169;SDS011;52474;52.236;5.114;2022-12-29T09:27:16;9.38;;;2.30;;
59169;SDS011;52474;52.236;5.114;2022-12-29T09:29:41;12.65;;;2.13;;
59169;SDS011;52474;52.236;5.114;2022-12-29T09:32:07;14.98;;;2.88;;
59169;SDS011;52474;52.236;5.114;2022-12-29T09:34:33;13.15;;;2.83;;
59169;SDS011;52474;52.236;5.114;2022-12-29T09:36:58;8.13;;;2.08;;
59169;SDS011;52474;52.236;5.114;2022-12-29T09:39:24;13.40;;;2.17;;
59169;SDS011;52474;52.236;5.114;2022-12-29T09:44:49;10.02;;;1.90;;
59169;SDS011;52474;52.236;5.114;2022-12-29T09:47:17;11.90;;;2.28;;
59169;SDS011;52474;52.236;5.114;2022-12-29T09:49:56;13.32;;;2.58;;
59169;SDS011;52474;52.236;5.114;2022-12-29T09:52:35;8.63;;;2.03;;
59169;SDS011;52474;52.236;5.114;2022-12-29T09:55:23;10.90;;;1.83;;
59169;SDS011;52474;52.236;5.114;2022-12-29T09:58:02;11.00;;;1.95;;
59169;SDS011;52474;52.236;5.114;2022-12-29T10:00:37;15.35;;;2.42;;
59169;SDS011;52474;52.236;5.114;2022-12-29T10:03:18;10.07;;;1.75;;
59169;SDS011;52474;52.236;5.114;2022-12-29T10:08:37;10.13;;;2.33;;
59169;SDS011;52474;52.236;5.114;2022-12-29T10:14:02;11.48;;;2.30;;
59169;SDS011;52474;52.236;5.114;2022-12-29T10:16:56;19.73;;;3.47;;
59169;SDS011;52474;52.236;5.114;2022-12-29T10:25:38;12.73;;;2.65;;
59169;SDS011;52474;52.236;5.114;2022-12-29T10:28:10;10.85;;;2.70;;
59169;SDS011;52474;52.236;5.114;2022-12-29T10:31:01;16.55;;;3.17;;
59169;SDS011;52474;52.236;5.114;2022-12-29T10:33:35;12.07;;;2.28;;
59169;SDS011;52474;52.236;5.114;2022-12-29T10:36:12;15.50;;;3.10;;
59169;SDS011;52474;52.236;5.114;2022-12-29T10:38:48;11.43;;;2.60;;
59169;SDS011;52474;52.236;5.114;2022-12-29T10:41:26;15.38;;;2.75;;
59169;SDS011;52474;52.236;5.114;2022-12-29T10:43:59;13.65;;;2.65;;
59169;SDS011;52474;52.236;5.114;2022-12-29T10:46:31;16.33;;;3.08;;
59169;SDS011;52474;52.236;5.114;2022-12-29T10:49:00;13.93;;;2.95;;
59169;SDS011;52474;52.236;5.114;2022-12-29T10:51:30;12.52;;;3.13;;
59169;SDS011;52474;52.236;5.114;2022-12-29T10:54:03;22.45;;;3.85;;
59169;SDS011;52474;52.236;5.114;2022-12-29T10:59:24;14.70;;;2.95;;
59169;SDS011;52474;52.236;5.114;2022-12-29T11:07:27;16.88;;;2.78;;
59169;SDS011;52474;52.236;5.114;2022-12-29T11:09:56;14.57;;;3.03;;
59169;SDS011;52474;52.236;5.114;2022-12-29T11:12:54;18.05;;;2.85;;
59169;SDS011;52474;52.236;5.114;2022-12-29T11:15:38;14.70;;;3.10;;
59169;SDS011;52474;52.236;5.114;2022-12-29T11:18:32;16.25;;;2.92;;
59169;SDS011;52474;52.236;5.114;2022-12-29T11:21:03;22.95;;;2.63;;
59169;SDS011;52474;52.236;5.114;2022-12-29T11:23:54;15.32;;;2.70;;
59169;SDS011;52474;52.236;5.114;2022-12-29T11:26:23;21.13;;;3.15;;
59169;SDS011;52474;52.236;5.114;2022-12-29T11:29:36;18.02;;;2.58;;
59169;SDS011;52474;52.236;5.114;2022-12-29T11:31:42;23.17;;;3.13;;
59169;SDS011;52474;52.236;5.114;2022-12-29T11:34:19;14.40;;;2.63;;
59169;SDS011;52474;52.236;5.114;2022-12-29T11:37:00;19.35;;;2.47;;
59169;SDS011;52474;52.236;5.114;2022-12-29T11:42:06;15.73;;;2.72;;
59169;SDS011;52474;52.236;5.114;2022-12-29T11:44:44;9.95;;;1.75;;
59169;SDS011;52474;52.236;5.114;2022-12-29T11:47:13;10.88;;;1.75;;
59169;SDS011;52474;52.236;5.114;2022-12-29T11:49:51;19.10;;;3.03;;
59169;SDS011;52474;52.236;5.114;2022-12-29T11:52:23;12.10;;;2.08;;
59169;SDS011;52474;52.236;5.114;2022-12-29T11:54:51;9.55;;;1.90;;
59169;SDS011;52474;52.236;5.114;2022-12-29T11:57:18;20.42;;;2.80;;
59169;SDS011;52474;52.236;5.114;2022-12-29T12:02:20;18.17;;;3.13;;
59169;SDS011;52474;52.236;5.114;2022-12-29T12:04:48;15.10;;;2.35;;
59169;SDS011;52474;52.236;5.114;2022-12-29T12:07:21;15.68;;;2.47;;
59169;SDS011;52474;52.236;5.114;2022-12-29T12:10:01;26.42;;;11.85;;
59169;SDS011;52474;52.236;5.114;2022-12-29T12:12:41;15.30;;;2.13;;
59169;SDS011;52474;52.236;5.114;2022-12-29T12:15:19;15.82;;;2.28;;
59169;SDS011;52474;52.236;5.114;2022-12-29T12:18:00;12.50;;;2.50;;
59169;SDS011;52474;52.236;5.114;2022-12-29T12:26:14;10.23;;;2.05;;
59169;SDS011;52474;52.236;5.114;2022-12-29T12:31:34;12.98;;;2.10;;
59169;SDS011;52474;52.236;5.114;2022-12-29T12:50:40;7.72;;;2.03;;
59169;SDS011;52474;52.236;5.114;2022-12-29T12:53:27;9.10;;;1.63;;
59169;SDS011;52474;52.236;5.114;2022-12-29T13:16:53;11.32;;;2.00;;
59169;SDS011;52474;52.236;5.114;2022-12-29T13:22:29;9.77;;;1.77;;
59169;SDS011;52474;52.236;5.114;2022-12-29T13:25:19;9.88;;;1.75;;
59169;SDS011;52474;52.236;5.114;2022-12-29T13:33:51;10.32;;;1.60;;
59169;SDS011;52474;52.236;5.114;2022-12-29T13:36:33;10.82;;;1.52;;
59169;SDS011;52474;52.236;5.114;2022-12-29T13:39:06;13.82;;;2.05;;
59169;SDS011;52474;52.236;5.114;2022-12-29T13:41:53;8.93;;;1.52;;
59169;SDS011;52474;52.236;5.114;2022-12-29T13:44:23;10.50;;;1.52;;
59169;SDS011;52474;52.236;5.114;2022-12-29T13:46:52;9.85;;;1.70;;
59169;SDS011;52474;52.236;5.114;2022-12-29T13:49:22;9.43;;;1.60;;
59169;SDS011;52474;52.236;5.114;2022-12-29T13:51:52;10.60;;;1.95;;
59169;SDS011;52474;52.236;5.114;2022-12-29T13:56:56;14.50;;;2.33;;
59169;SDS011;52474;52.236;5.114;2022-12-29T14:07:46;11.95;;;2.40;;
59169;SDS011;52474;52.236;5.114;2022-12-29T14:13:13;10.65;;;2.03;;
59169;SDS011;52474;52.236;5.114;2022-12-29T14:15:54;14.93;;;1.83;;
59169;SDS011;52474;52.236;5.114;2022-12-29T14:18:25;13.50;;;2.58;;
59169;SDS011;52474;52.236;5.114;2022-12-29T14:20:57;19.35;;;2.63;;
59169;SDS011;52474;52.236;5.114;2022-12-29T14:26:00;10.30;;;2.47;;
59169;SDS011;52474;52.236;5.114;2022-12-29T14:28:27;6.80;;;1.67;;
59169;SDS011;52474;52.236;5.114;2022-12-29T14:30:55;8.52;;;2.22;;
59169;SDS011;52474;52.236;5.114;2022-12-29T14:33:23;8.18;;;1.73;;
59169;SDS011;52474;52.236;5.114;2022-12-29T14:35:52;9.17;;;1.90;;
59169;SDS011;52474;52.236;5.114;2022-12-29T14:38:19;9.07;;;1.80;;
59169;SDS011;52474;52.236;5.114;2022-12-29T14:40:48;5.90;;;1.35;;
59169;SDS011;52474;52.236;5.114;2022-12-29T14:43:20;5.50;;;1.25;;
59169;SDS011;52474;52.236;5.114;2022-12-29T14:46:08;5.18;;;1.33;;
59169;SDS011;52474;52.236;5.114;2022-12-29T14:48:36;11.65;;;2.30;;
59169;SDS011;52474;52.236;5.114;2022-12-29T14:53:57;5.43;;;1.23;;
59169;SDS011;52474;52.236;5.114;2022-12-29T14:56:27;6.30;;;1.20;;
59169;SDS011;52474;52.236;5.114;2022-12-29T14:58:57;7.85;;;1.23;;
59169;SDS011;52474;52.236;5.114;2022-12-29T15:01:30;8.07;;;1.70;;
59169;SDS011;52474;52.236;5.114;2022-12-29T15:04:15;4.82;;;1.38;;
59169;SDS011;52474;52.236;5.114;2022-12-29T15:06:43;3.75;;;1.38;;
59169;SDS011;52474;52.236;5.114;2022-12-29T15:09:28;7.60;;;1.77;;
59169;SDS011;52474;52.236;5.114;2022-12-29T15:12:01;6.10;;;1.80;;
59169;SDS011;52474;52.236;5.114;2022-12-29T15:14:51;7.75;;;2.10;;
59169;SDS011;52474;52.236;5.114;2022-12-29T15:17:28;9.80;;;2.13;;
59169;SDS011;52474;52.236;5.114;2022-12-29T15:19:59;7.15;;;1.77;;
59169;SDS011;52474;52.236;5.114;2022-12-29T15:22:45;5.25;;;1.85;;
59169;SDS011;52474;52.236;5.114;2022-12-29T15:25:19;8.52;;;2.00;;
59169;SDS011;52474;52.236;5.114;2022-12-29T15:27:51;10.77;;;1.85;;
59169;SDS011;52474;52.236;5.114;2022-12-29T15:30:19;9.60;;;2.20;;
59169;SDS011;52474;52.236;5.114;2022-12-29T15:32:46;6.88;;;2.13;;
59169;SDS011;52474;52.236;5.114;2022-12-29T15:35:24;11.65;;;1.95;;
59169;SDS011;52474;52.236;5.114;2022-12-29T15:37:58;11.05;;;1.70;;
59169;SDS011;52474;52.236;5.114;2022-12-29T15:40:28;11.25;;;1.98;;
59169;SDS011;52474;52.236;5.114;2022-12-29T15:45:42;12.57;;;1.98;;
59169;SDS011;52474;52.236;5.114;2022-12-29T15:48:13;11.05;;;2.05;;
59169;SDS011;52474;52.236;5.114;2022-12-29T15:50:43;7.88;;;1.80;;
59169;SDS011;52474;52.236;5.114;2022-12-29T15:53:11;11.48;;;2.40;;
59169;SDS011;52474;52.236;5.114;2022-12-29T15:55:43;15.20;;;2.63;;
59169;SDS011;52474;52.236;5.114;2022-12-29T15:58:22;17.30;;;2.95;;
59169;SDS011;52474;52.236;5.114;2022-12-29T16:00:51;9.73;;;3.38;;
59169;SDS011;52474;52.236;5.114;2022-12-29T16:03:20;8.43;;;2.15;;
59169;SDS011;52474;52.236;5.114;2022-12-29T16:05:52;12.98;;;2.40;;
59169;SDS011;52474;52.236;5.114;2022-12-29T16:08:32;10.48;;;2.13;;
59169;SDS011;52474;52.236;5.114;2022-12-29T16:11:06;16.00;;;2.22;;
59169;SDS011;52474;52.236;5.114;2022-12-29T16:13:53;15.43;;;2.40;;
59169;SDS011;52474;52.236;5.114;2022-12-29T16:16:28;10.10;;;2.40;;
59169;SDS011;52474;52.236;5.114;2022-12-29T16:18:56;12.57;;;2.17;;
59169;SDS011;52474;52.236;5.114;2022-12-29T16:23:52;12.77;;;2.22;;
59169;SDS011;52474;52.236;5.114;2022-12-29T16:26:21;8.70;;;1.90;;
59169;SDS011;52474;52.236;5.114;2022-12-29T16:28:49;15.02;;;2.30;;
59169;SDS011;52474;52.236;5.114;2022-12-29T16:31:23;8.82;;;2.10;;
59169;SDS011;52474;52.236;5.114;2022-12-29T16:33:53;12.88;;;2.20;;
59169;SDS011;52474;52.236;5.114;2022-12-29T16:42:01;12.10;;;2.35;;
59169;SDS011;52474;52.236;5.114;2022-12-29T16:50:31;8.27;;;1.70;;
59169;SDS011;52474;52.236;5.114;2022-12-29T16:53:02;7.50;;;1.60;;
59169;SDS011;52474;52.236;5.114;2022-12-29T16:55:29;9.95;;;1.67;;
59169;SDS011;52474;52.236;5.114;2022-12-29T16:57:54;9.30;;;2.22;;
59169;SDS011;52474;52.236;5.114;2022-12-29T17:00:22;9.27;;;1.63;;
59169;SDS011;52474;52.236;5.114;2022-12-29T17:02:51;6.07;;;1.88;;
59169;SDS011;52474;52.236;5.114;2022-12-29T17:05:20;12.20;;;1.52;;
59169;SDS011;52474;52.236;5.114;2022-12-29T17:07:46;4.18;;;1.42;;
59169;SDS011;52474;52.236;5.114;2022-12-29T17:10:12;7.70;;;1.50;;
59169;SDS011;52474;52.236;5.114;2022-12-29T17:12:41;7.53;;;1.83;;
59169;SDS011;52474;52.236;5.114;2022-12-29T17:18:01;9.48;;;1.33;;
59169;SDS011;52474;52.236;5.114;2022-12-29T17:20:27;13.00;;;1.77;;
59169;SDS011;52474;52.236;5.114;2022-12-29T17:22:55;8.20;;;1.73;;
59169;SDS011;52474;52.236;5.114;2022-12-29T17:28:00;4.57;;;1.50;;
59169;SDS011;52474;52.236;5.114;2022-12-29T17:30:32;7.63;;;1.20;;
59169;SDS011;52474;52.236;5.114;2022-12-29T17:33:03;9.10;;;1.70;;
59169;SDS011;52474;52.236;5.114;2022-12-29T17:35:36;7.15;;;2.05;;
59169;SDS011;52474;52.236;5.114;2022-12-29T17:38:02;8.75;;;2.05;;
59169;SDS011;52474;52.236;5.114;2022-12-29T17:40:36;9.88;;;1.50;;
59169;SDS011;52474;52.236;5.114;2022-12-29T17:43:02;10.80;;;1.67;;
59169;SDS011;52474;52.236;5.114;2022-12-29T17:45:28;5.90;;;1.38;;
59169;SDS011;52474;52.236;5.114;2022-12-29T17:47:56;9.18;;;1.58;;
59169;SDS011;52474;52.236;5.114;2022-12-29T17:50:26;9.05;;;1.48;;